createdAt,value
2019-01-02T00:00:37.378Z,4.54
2019-01-02T00:03:06.339Z,4.53
2019-01-02T00:05:35.502Z,4.60
2019-01-02T00:08:04.885Z,4.66
2019-01-02T00:10:33.944Z,4.68
2019-01-02T00:13:02.788Z,4.56
2019-01-02T00:15:31.843Z,4.52
2019-01-02T00:18:00.534Z,4.31
2019-01-02T00:20:29.292Z,4.48
2019-01-02T00:22:58.877Z,4.45
2019-01-02T00:25:27.908Z,4.49
2019-01-02T00:27:57.055Z,4.44
2019-01-02T00:30:25.819Z,4.53
2019-01-02T00:32:54.779Z,4.55
2019-01-02T00:35:23.468Z,4.44
2019-01-02T00:37:52.609Z,4.31
2019-01-02T00:40:21.375Z,4.44
2019-01-02T00:42:50.719Z,4.52
2019-01-02T00:45:22.377Z,4.59
2019-01-02T00:47:49.891Z,4.63
2019-01-02T00:50:18.586Z,4.72
2019-01-02T00:52:47.279Z,4.57
2019-01-02T00:55:15.967Z,4.54
2019-01-02T00:57:44.667Z,4.48
2019-01-02T01:00:20.225Z,4.64
2019-01-02T01:02:49.552Z,4.44
2019-01-02T01:05:18.425Z,4.34
2019-01-02T01:07:47.751Z,4.27
2019-01-02T01:10:17.863Z,4.34
2019-01-02T01:12:47.021Z,4.31
2019-01-02T01:15:16.131Z,4.13
2019-01-02T01:17:45.204Z,4.25
2019-01-02T01:20:16.235Z,4.24
2019-01-02T01:22:46.575Z,4.11
2019-01-02T01:25:15.584Z,4.00
2019-01-02T01:27:44.342Z,4.06
2019-01-02T01:30:13.314Z,4.15
2019-01-02T01:32:42.082Z,4.13
2019-01-02T01:35:13.150Z,4.01
2019-01-02T01:37:46.284Z,4.03
2019-01-02T01:40:15.182Z,4.04
2019-01-02T01:42:45.354Z,4.14
2019-01-02T01:45:14.116Z,4.17
2019-01-02T01:47:42.879Z,4.19
2019-01-02T01:50:11.921Z,4.22
2019-01-02T01:52:40.621Z,4.38
2019-01-02T01:55:09.293Z,4.45
2019-01-02T01:57:38.242Z,4.36
2019-01-02T02:00:11.041Z,4.26
2019-01-02T02:02:40.199Z,4.24
2019-01-02T02:05:09.263Z,3.93
2019-01-02T02:07:38.090Z,3.97
2019-01-02T02:10:09.804Z,4.14
2019-01-02T02:12:38.560Z,4.23
2019-01-02T02:15:09.044Z,4.18
2019-01-02T02:17:38.015Z,3.90
2019-01-02T02:20:08.531Z,3.92
2019-01-02T02:22:37.580Z,3.91
2019-01-02T02:25:08.148Z,3.79
2019-01-02T02:27:37.188Z,3.47
2019-01-02T02:30:07.671Z,3.57
2019-01-02T02:32:36.360Z,3.73
2019-01-02T02:35:05.256Z,3.89
2019-01-02T02:37:33.945Z,3.82
2019-01-02T02:40:02.958Z,3.79
2019-01-02T02:42:31.708Z,3.80
2019-01-02T02:45:00.758Z,4.04
2019-01-02T02:47:29.831Z,4.08
2019-01-02T02:49:58.993Z,4.17
2019-01-02T02:52:27.720Z,3.97
2019-01-02T02:54:56.729Z,3.81
2019-01-02T02:57:25.473Z,3.80
2019-01-02T02:59:54.163Z,4.01
2019-01-02T03:02:22.924Z,3.86
2019-01-02T03:04:51.692Z,4.06
2019-01-02T03:07:20.768Z,4.11
2019-01-02T03:09:49.783Z,4.12
2019-01-02T03:12:18.855Z,4.10
2019-01-02T03:14:47.667Z,4.04
2019-01-02T03:17:16.360Z,3.96
2019-01-02T03:19:45.846Z,3.96
2019-01-02T03:22:14.781Z,3.92
2019-01-02T03:24:43.753Z,3.93
2019-01-02T03:27:12.792Z,4.03
2019-01-02T03:29:42.910Z,4.17
2019-01-02T03:32:11.971Z,4.16
2019-01-02T03:34:41.036Z,4.27
2019-01-02T03:37:09.906Z,4.46
2019-01-02T03:39:38.594Z,4.43
2019-01-02T03:42:07.302Z,4.37
2019-01-02T03:44:36.083Z,4.22
2019-01-02T03:47:04.828Z,4.23
2019-01-02T03:49:33.595Z,4.26
2019-01-02T03:52:02.350Z,4.22
2019-01-02T03:54:31.411Z,4.37
2019-01-02T03:57:00.173Z,4.16
2019-01-02T03:59:28.852Z,4.25
2019-01-02T04:01:57.601Z,4.34
2019-01-02T04:04:26.400Z,4.30
2019-01-02T04:06:55.751Z,4.22
2019-01-02T04:09:24.446Z,4.19
2019-01-02T04:11:53.206Z,4.21
2019-01-02T04:14:21.956Z,4.08
2019-01-02T04:16:50.636Z,4.02
2019-01-02T04:19:19.338Z,3.99
2019-01-02T04:21:48.016Z,4.02
2019-01-02T04:24:17.201Z,3.89
2019-01-02T04:26:45.873Z,3.79
2019-01-02T04:29:14.616Z,3.77
2019-01-02T04:31:43.663Z,3.80
2019-01-02T04:34:12.635Z,3.82
2019-01-02T04:36:41.319Z,3.86
2019-01-02T04:39:10.368Z,3.95
2019-01-02T04:41:39.047Z,4.10
2019-01-02T04:44:07.797Z,3.94
2019-01-02T04:46:37.482Z,3.99
2019-01-02T04:49:06.161Z,3.95
2019-01-02T04:51:34.858Z,4.00
2019-01-02T04:54:03.550Z,4.03
2019-01-02T04:56:32.315Z,4.04
2019-01-02T04:59:01.244Z,4.05
2019-01-02T05:01:30.186Z,3.98
2019-01-02T05:03:59.294Z,3.95
2019-01-02T05:06:28.026Z,3.95
2019-01-02T05:08:56.750Z,3.79
2019-01-02T05:11:25.420Z,3.79
2019-01-02T05:13:54.126Z,3.83
2019-01-02T05:16:22.873Z,3.95
2019-01-02T05:18:51.553Z,3.89
2019-01-02T05:21:20.239Z,3.90
2019-01-02T05:23:48.990Z,3.91
2019-01-02T05:26:18.883Z,3.84
2019-01-02T05:28:47.568Z,3.90
2019-01-02T05:31:16.317Z,3.91
2019-01-02T05:33:45.018Z,3.90
2019-01-02T05:36:13.738Z,3.86
2019-01-02T05:38:42.746Z,3.96
2019-01-02T05:41:11.455Z,3.84
2019-01-02T05:43:40.145Z,3.84
2019-01-02T05:46:09.223Z,3.93
2019-01-02T05:48:37.989Z,3.91
2019-01-02T05:51:07.087Z,4.01
2019-01-02T05:53:36.430Z,3.96
2019-01-02T05:56:05.183Z,3.98
2019-01-02T05:58:33.880Z,3.76
2019-01-02T06:01:02.631Z,3.80
2019-01-02T06:03:31.701Z,3.79
2019-01-02T06:06:00.617Z,3.70
2019-01-02T06:08:30.156Z,3.83
2019-01-02T06:10:58.854Z,3.85
2019-01-02T06:13:27.525Z,4.05
2019-01-02T06:15:56.226Z,3.86
2019-01-02T06:18:25.197Z,3.97
2019-01-02T06:20:53.941Z,4.06
2019-01-02T06:23:22.874Z,3.99
2019-01-02T06:25:51.645Z,4.07
2019-01-02T06:28:20.411Z,4.02
2019-01-02T06:30:49.445Z,3.98
2019-01-02T06:33:18.130Z,3.94
2019-01-02T06:35:46.836Z,3.87
2019-01-02T06:38:15.593Z,4.17
2019-01-02T06:40:45.098Z,4.24
2019-01-02T06:43:13.826Z,4.30
2019-01-02T06:45:42.885Z,4.17
2019-01-02T06:48:11.574Z,4.43
2019-01-02T06:50:40.313Z,4.60
2019-01-02T06:53:09.449Z,4.47
2019-01-02T06:55:38.133Z,4.34
2019-01-02T06:58:06.896Z,4.25
2019-01-02T07:00:38.726Z,4.23
2019-01-02T07:03:07.467Z,4.38
2019-01-02T07:05:36.243Z,4.29
2019-01-02T07:08:05.001Z,4.32
2019-01-02T07:10:33.699Z,4.51
2019-01-02T07:13:02.433Z,4.39
2019-01-02T07:15:31.166Z,4.37
2019-01-02T07:17:59.907Z,4.25
2019-01-02T07:20:28.580Z,4.34
2019-01-02T07:22:57.285Z,4.33
2019-01-02T07:25:25.983Z,4.43
2019-01-02T07:27:55.007Z,4.39
2019-01-02T07:30:25.027Z,4.19
2019-01-02T07:32:53.844Z,4.31
2019-01-02T07:35:54.679Z,4.52
2019-01-02T07:39:22.887Z,4.46
2019-01-02T07:42:20.218Z,4.51
2019-01-02T07:45:26.365Z,4.70
2019-01-02T07:48:40.542Z,4.65
2019-01-02T07:51:46.617Z,4.45
2019-01-02T07:55:14.956Z,4.35
2019-01-02T07:58:23.564Z,4.52
2019-01-02T08:01:39.394Z,4.63
2019-01-02T08:05:07.728Z,4.36
2019-01-02T08:08:21.171Z,4.07
2019-01-02T08:11:38.962Z,4.52
2019-01-02T08:14:55.628Z,4.28
2019-01-02T08:18:11.544Z,4.29
2019-01-02T08:21:08.628Z,4.30
2019-01-02T08:24:18.519Z,4.53
2019-01-02T08:27:28.764Z,4.35
2019-01-02T08:30:38.294Z,4.38
2019-01-02T08:33:23.912Z,4.33
2019-01-02T08:36:43.282Z,4.64
2019-01-02T08:39:58.050Z,4.99
2019-01-02T08:42:48.435Z,4.96
2019-01-02T08:46:07.410Z,4.89
2019-01-02T08:49:13.704Z,4.89
2019-01-02T08:52:26.389Z,5.09
2019-01-02T08:55:41.616Z,5.05
2019-01-02T08:58:48.135Z,5.19
2019-01-02T09:02:19.424Z,5.08
2019-01-02T09:05:35.756Z,5.04
2019-01-02T09:09:01.009Z,5.33
2019-01-02T09:12:16.301Z,5.37
2019-01-02T09:15:38.194Z,5.17
2019-01-02T09:18:44.303Z,5.38
2019-01-02T09:21:50.124Z,4.93
2019-01-02T09:24:57.557Z,5.05
2019-01-02T09:27:52.788Z,5.26
2019-01-02T09:30:47.448Z,5.28
2019-01-02T09:33:41.339Z,5.85
2019-01-02T09:37:14.631Z,5.33
2019-01-02T09:40:28.681Z,5.32
2019-01-02T09:43:34.220Z,5.31
2019-01-02T09:46:53.958Z,5.36
2019-01-02T09:50:00.252Z,5.48
2019-01-02T09:53:04.889Z,5.63
2019-01-02T09:56:00.273Z,5.79
2019-01-02T09:59:06.375Z,5.67
2019-01-02T10:01:47.329Z,5.43
2019-01-02T10:04:36.908Z,5.28
2019-01-02T10:07:52.274Z,5.31
2019-01-02T10:11:29.592Z,5.17
2019-01-02T10:14:37.029Z,5.01
2019-01-02T10:17:44.153Z,5.11
2019-01-02T10:20:43.881Z,5.32
2019-01-02T10:23:48.658Z,5.35
2019-01-02T10:26:44.227Z,5.37
2019-01-02T10:29:36.942Z,5.26
2019-01-02T10:32:44.112Z,5.36
2019-01-02T10:35:44.788Z,5.73
2019-01-02T10:38:52.212Z,5.74
2019-01-02T10:41:54.648Z,5.66
2019-01-02T10:45:01.878Z,5.53
2019-01-02T10:48:09.001Z,5.52
2019-01-02T10:51:16.145Z,5.46
2019-01-02T10:54:06.483Z,5.53
2019-01-02T10:56:59.548Z,5.62
2019-01-02T11:00:07.248Z,5.87
2019-01-02T11:03:14.369Z,6.06
2019-01-02T11:06:22.480Z,6.08
2019-01-02T11:09:16.243Z,5.86
2019-01-02T11:12:23.419Z,5.90
2019-01-02T11:15:30.544Z,5.92
2019-01-02T11:18:37.723Z,6.06
2019-01-02T11:21:44.854Z,5.70
2019-01-02T11:28:04.936Z,5.32
2019-01-02T11:31:08.096Z,5.47
2019-01-02T11:34:11.781Z,5.58
2019-01-02T11:37:19.177Z,5.81
2019-01-02T11:40:26.307Z,5.91
2019-01-02T11:43:33.814Z,6.02
2019-01-02T11:46:02.500Z,6.31
2019-01-02T11:48:31.535Z,6.36
2019-01-02T11:51:19.416Z,6.59
2019-01-02T11:54:07.360Z,6.51
2019-01-02T11:56:36.038Z,6.47
2019-01-02T11:59:04.790Z,6.06
2019-01-02T12:01:33.491Z,6.31
2019-01-02T12:04:02.195Z,5.64
2019-01-02T12:09:47.073Z,5.75
2019-01-02T12:12:16.195Z,6.03
2019-01-02T12:14:44.885Z,6.08
2019-01-02T12:17:26.347Z,6.39
2019-01-02T12:25:42.623Z,5.98
2019-01-02T12:28:11.310Z,5.45
2019-01-02T12:30:59.349Z,5.41
2019-01-02T12:33:28.112Z,5.13
2019-01-02T12:35:56.803Z,5.35
2019-01-02T12:38:25.500Z,5.03
2019-01-02T12:40:54.175Z,5.18
2019-01-02T12:43:22.936Z,5.12
2019-01-02T12:45:51.625Z,5.07
2019-01-02T12:48:20.313Z,5.38
2019-01-02T12:53:23.676Z,5.47
2019-01-02T12:56:11.708Z,5.62
2019-01-02T12:58:59.726Z,5.41
2019-01-02T13:02:06.902Z,5.32
2019-01-02T13:04:59.400Z,5.24
2019-01-02T13:08:06.529Z,5.23
2019-01-02T13:11:13.665Z,5.25
2019-01-02T13:17:06.951Z,5.08
2019-01-02T13:20:14.074Z,5.15
2019-01-02T13:23:21.198Z,5.26
2019-01-02T13:54:49.433Z,8.29
2019-01-02T13:57:18.128Z,7.75
2019-01-02T13:59:47.195Z,7.56
2019-01-02T14:02:15.875Z,7.06
2019-01-02T14:04:46.268Z,7.08
2019-01-02T14:07:14.970Z,7.06
2019-01-02T14:09:43.647Z,6.88
2019-01-02T14:12:12.361Z,6.85
2019-01-02T14:14:41.079Z,6.78
2019-01-02T14:17:10.610Z,6.73
2019-01-02T14:19:39.308Z,6.55
2019-01-02T14:22:08.064Z,6.61
2019-01-02T14:24:37.432Z,6.53
2019-01-02T14:27:06.195Z,6.47
2019-01-02T14:29:34.876Z,6.41
2019-01-02T14:32:03.586Z,6.47
2019-01-02T14:34:32.274Z,5.87
2019-01-02T14:37:02.389Z,5.80
2019-01-02T14:39:31.149Z,6.00
2019-01-02T14:42:00.283Z,6.04
2019-01-02T14:44:28.976Z,5.87
2019-01-02T14:46:57.661Z,5.76
2019-01-02T14:49:26.365Z,5.45
2019-01-02T14:51:55.256Z,5.51
2019-01-02T14:54:24.018Z,5.51
2019-01-02T14:56:52.780Z,5.50
2019-01-02T14:59:21.475Z,5.56
2019-01-02T15:01:50.180Z,5.64
2019-01-02T15:04:19.210Z,5.62
2019-01-02T15:06:48.251Z,5.58
2019-01-02T15:09:16.967Z,5.64
2019-01-02T15:11:45.633Z,5.39
2019-01-02T15:14:14.708Z,5.09
2019-01-02T15:16:44.661Z,5.26
2019-01-02T15:19:13.649Z,5.27
2019-01-02T15:21:42.341Z,5.26
2019-01-02T15:24:11.311Z,5.25
2019-01-02T15:26:40.390Z,5.24
2019-01-02T15:29:09.114Z,5.21
2019-01-02T15:31:37.963Z,5.03
2019-01-02T15:34:06.652Z,4.89
2019-01-02T15:36:35.337Z,4.81
2019-01-02T15:39:06.578Z,4.69
2019-01-02T15:41:35.272Z,4.62
2019-01-02T15:44:03.960Z,4.53
2019-01-02T15:46:32.663Z,4.52
2019-01-02T15:49:01.352Z,4.49
2019-01-02T15:51:30.054Z,4.39
2019-01-02T15:53:58.740Z,4.33
2019-01-02T15:56:27.553Z,4.34
2019-01-02T15:58:56.246Z,4.34
2019-01-02T16:01:24.976Z,4.41
2019-01-02T16:03:54.033Z,4.48
2019-01-02T16:06:22.798Z,4.47
2019-01-02T16:08:51.473Z,4.42
2019-01-02T16:11:20.524Z,4.54
2019-01-02T16:13:49.213Z,4.45
2019-01-02T16:16:18.297Z,4.47
2019-01-02T16:18:46.982Z,4.38
2019-01-02T16:21:15.673Z,4.23
2019-01-02T16:23:44.381Z,4.07
2019-01-02T16:26:13.138Z,3.95
2019-01-02T16:28:41.831Z,3.89
2019-01-02T16:31:11.058Z,3.71
2019-01-02T16:33:39.775Z,3.62
2019-01-02T16:36:08.463Z,3.64
2019-01-02T16:38:37.524Z,3.60
2019-01-02T16:41:06.222Z,3.34
2019-01-02T16:43:35.647Z,3.24
2019-01-02T16:46:04.407Z,3.21
2019-01-02T16:48:33.162Z,3.05
2019-01-02T16:51:01.843Z,2.84
2019-01-02T16:53:30.539Z,2.83
2019-01-02T16:55:59.312Z,2.95
2019-01-02T16:58:27.997Z,2.95
2019-01-02T17:00:56.753Z,3.14
2019-01-02T17:03:25.447Z,2.64
2019-01-02T17:05:54.144Z,2.48
2019-01-02T17:08:23.220Z,2.30
2019-01-02T17:10:51.988Z,2.13
2019-01-02T17:13:20.691Z,2.09
2019-01-02T17:15:49.426Z,1.91
2019-01-02T17:18:18.182Z,1.72
2019-01-02T17:20:47.316Z,1.69
2019-01-02T17:23:16.014Z,1.67
2019-01-02T17:25:45.006Z,1.61
2019-01-02T17:28:13.758Z,1.68
2019-01-02T17:30:42.451Z,1.70
2019-01-02T17:33:11.145Z,1.66
2019-01-02T17:35:39.886Z,1.73
2019-01-02T17:38:08.587Z,1.88
2019-01-02T17:40:37.275Z,1.81
2019-01-02T17:43:05.966Z,1.73
2019-01-02T17:45:34.661Z,1.64
2019-01-02T17:48:03.707Z,1.54
2019-01-02T17:50:32.675Z,1.49
2019-01-02T17:53:01.366Z,1.55
2019-01-02T17:55:30.050Z,1.62
2019-01-02T17:57:58.792Z,1.88
2019-01-02T18:00:27.558Z,1.96
2019-01-02T18:02:56.267Z,2.17
2019-01-02T18:05:24.963Z,2.05
2019-01-02T18:07:54.072Z,1.91
2019-01-02T18:10:22.840Z,1.82
2019-01-02T18:12:51.599Z,1.89
2019-01-02T18:15:20.647Z,1.90
2019-01-02T18:17:49.412Z,1.71
2019-01-02T18:20:18.430Z,1.36
2019-01-02T18:22:47.258Z,1.20
2019-01-02T18:25:16.225Z,1.11
2019-01-02T18:27:45.239Z,0.98
2019-01-02T18:30:14.096Z,0.88
2019-01-02T18:32:42.789Z,0.99
2019-01-02T18:35:11.565Z,1.09
2019-01-02T18:37:40.340Z,1.14
2019-01-02T18:40:09.451Z,1.21
2019-01-02T18:42:38.134Z,0.97
2019-01-02T18:45:07.007Z,0.57
2019-01-02T18:47:35.785Z,0.57
2019-01-02T18:50:05.460Z,0.63
2019-01-02T18:52:34.722Z,0.72
2019-01-02T18:55:03.405Z,0.58
2019-01-02T18:57:32.134Z,0.55
2019-01-02T19:00:06.082Z,0.79
2019-01-02T19:02:31.253Z,0.77
2019-01-02T19:04:59.978Z,0.75
2019-01-02T19:07:28.705Z,0.29
2019-01-02T19:09:57.390Z,0.13
2019-01-02T19:12:26.078Z,0.04
2019-01-02T19:14:54.837Z,0.05
2019-01-02T19:17:23.573Z,-0.04
2019-01-02T19:19:52.328Z,0.02
2019-01-02T19:22:21.309Z,0.21
2019-01-02T19:24:50.059Z,0.11
2019-01-02T19:27:18.743Z,0.35
2019-01-02T19:29:47.761Z,0.05
2019-01-02T19:32:16.564Z,-0.27
2019-01-02T19:34:45.260Z,-0.28
2019-01-02T19:37:14.252Z,-0.52
2019-01-02T19:39:42.945Z,-0.58
2019-01-02T19:42:12.009Z,-0.62
2019-01-02T19:44:41.107Z,-0.67
2019-01-02T19:47:09.886Z,-0.61
2019-01-02T19:49:38.581Z,-0.60
2019-01-02T19:52:07.259Z,-0.70
2019-01-02T19:54:36.659Z,-0.68
2019-01-02T19:57:04.895Z,-0.62
2019-01-02T19:59:33.931Z,-0.62
2019-01-02T20:02:02.695Z,-0.49
2019-01-02T20:04:31.382Z,-0.74
2019-01-02T20:07:00.461Z,-0.83
2019-01-02T20:09:29.141Z,-0.83
2019-01-02T20:11:57.914Z,-0.83
2019-01-02T20:14:26.623Z,-0.83
2019-01-02T20:16:55.308Z,-0.90
2019-01-02T20:19:24.332Z,-1.01
2019-01-02T20:21:53.039Z,-0.96
2019-01-02T20:24:21.742Z,-0.82
2019-01-02T20:26:55.397Z,-1.07
2019-01-02T20:29:20.940Z,-1.16
2019-01-02T20:31:50.699Z,-1.08
2019-01-02T20:34:19.395Z,-0.80
2019-01-02T20:36:48.416Z,-0.82
2019-01-02T20:39:17.226Z,-0.79
2019-01-02T20:41:45.869Z,-1.38
2019-01-02T20:44:14.716Z,-1.38
2019-01-02T20:46:43.473Z,-1.44
2019-01-02T20:49:12.172Z,-1.32
2019-01-02T20:51:40.852Z,-1.35
2019-01-02T20:54:09.549Z,-1.35
2019-01-02T20:56:38.865Z,-1.13
2019-01-02T20:59:07.566Z,-1.07
2019-01-02T21:01:36.336Z,-1.28
2019-01-02T21:04:05.029Z,-1.28
2019-01-02T21:06:33.806Z,-1.32
2019-01-02T21:09:03.579Z,-1.36
2019-01-02T21:11:32.269Z,-1.36
2019-01-02T21:14:00.960Z,-1.40
2019-01-02T21:16:29.706Z,-1.60
2019-01-02T21:18:58.740Z,-1.60
2019-01-02T21:21:28.046Z,-1.62
2019-01-02T21:23:56.728Z,-1.65
2019-01-02T21:26:25.421Z,-1.71
2019-01-02T21:28:54.140Z,-1.67
2019-01-02T21:31:22.938Z,-1.62
2019-01-02T21:33:51.600Z,-1.80
2019-01-02T21:36:20.624Z,-1.93
2019-01-02T21:38:49.384Z,-1.93
2019-01-02T21:41:18.444Z,-1.85
2019-01-02T21:43:47.489Z,-1.79
2019-01-02T21:46:16.259Z,-1.83
2019-01-02T21:48:45.016Z,-1.87
2019-01-02T21:51:13.712Z,-1.80
2019-01-02T21:53:42.483Z,-1.87
2019-01-02T21:56:11.556Z,-1.86
2019-01-02T21:58:40.272Z,-2.03
2019-01-02T22:01:09.113Z,-2.05
2019-01-02T22:03:37.845Z,-2.06
2019-01-02T22:06:06.615Z,-2.02
2019-01-02T22:08:35.324Z,-1.78
2019-01-02T22:11:04.486Z,-1.66
2019-01-02T22:13:33.183Z,-1.69
2019-01-02T22:16:01.881Z,-1.77
2019-01-02T22:18:30.970Z,-1.88
2019-01-02T22:20:59.753Z,-2.04
2019-01-02T22:23:28.450Z,-2.21
2019-01-02T22:25:57.537Z,-2.24
2019-01-02T22:28:26.300Z,-2.23
2019-01-02T22:30:55.103Z,-2.16
2019-01-02T22:33:23.884Z,-2.17
2019-01-02T22:35:52.579Z,-2.07
2019-01-02T22:38:21.279Z,-2.12
2019-01-02T22:40:50.068Z,-2.02
2019-01-02T22:43:18.778Z,-1.88
2019-01-02T22:45:47.470Z,-1.65
2019-01-02T22:48:16.290Z,-1.37
2019-01-02T22:50:45.095Z,-1.35
2019-01-02T22:53:14.184Z,-1.58
2019-01-02T22:55:42.887Z,-1.58
2019-01-02T22:58:11.673Z,-1.65
2019-01-02T23:01:15.183Z,-1.76
2019-01-02T23:04:06.142Z,-1.76
2019-01-02T23:07:06.499Z,-1.72
2019-01-02T23:10:06.790Z,-1.91
2019-01-02T23:12:55.134Z,-2.04
2019-01-02T23:15:45.861Z,-2.03
2019-01-02T23:18:32.551Z,-2.15
2019-01-02T23:21:24.503Z,-2.11
2019-01-02T23:24:11.213Z,-2.15
2019-01-02T23:27:13.144Z,-2.24
2019-01-02T23:30:01.780Z,-2.33
2019-01-02T23:32:49.438Z,-2.32
2019-01-02T23:35:37.256Z,-2.40
2019-01-02T23:38:23.998Z,-2.37
2019-01-02T23:41:18.121Z,-2.35
2019-01-02T23:44:09.222Z,-2.26
2019-01-02T23:46:56.472Z,-2.30
2019-01-02T23:49:57.313Z,-2.40
2019-01-02T23:52:43.986Z,-2.44
2019-01-02T23:55:28.878Z,-2.43
2019-01-02T23:58:16.914Z,-2.31
